sensor_id;sensor_type;location;lat;lon;timestamp;pressure;altitude;pressure_sealevel;temperature;humidity
37856;BME280;23694;43.274;26.924;2023-04-10T00:00:43;99130.06;;;8.05;67.23
37856;BME280;23694;43.274;26.924;2023-04-10T00:03:10;99141.59;;;8.01;67.22
37856;BME280;23694;43.274;26.924;2023-04-10T00:05:37;99132.41;;;7.93;67.49
37856;BME280;23694;43.274;26.924;2023-04-10T00:08:03;99139.16;;;7.98;67.54
37856;BME280;23694;43.274;26.924;2023-04-10T00:10:29;99128.28;;;7.89;67.57
37856;BME280;23694;43.274;26.924;2023-04-10T00:12:57;99128.28;;;7.89;68.19
37856;BME280;23694;43.274;26.924;2023-04-10T00:15:25;99123.25;;;7.86;67.98
37856;BME280;23694;43.274;26.924;2023-04-10T00:17:51;99122.41;;;7.86;68.04
37856;BME280;23694;43.274;26.924;2023-04-10T00:20:20;99116.66;;;7.79;67.75
37856;BME280;23694;43.274;26.924;2023-04-10T00:22:48;99115.22;;;7.74;68.39
37856;BME280;23694;43.274;26.924;2023-04-10T00:25:14;99118.81;;;7.71;68.95
37856;BME280;23694;43.274;26.924;2023-04-10T00:27:40;99113.69;;;7.70;68.64
37856;BME280;23694;43.274;26.924;2023-04-10T00:30:06;99116.38;;;7.68;68.94
37856;BME280;23694;43.274;26.924;2023-04-10T00:32:33;99112.19;;;7.66;69.02
37856;BME280;23694;43.274;26.924;2023-04-10T00:34:59;99104.94;;;7.55;68.81
37856;BME280;23694;43.274;26.924;2023-04-10T00:37:25;99108.38;;;7.55;68.89
37856;BME280;23694;43.274;26.924;2023-04-10T00:39:52;99109.63;;;7.48;69.12
37856;BME280;23694;43.274;26.924;2023-04-10T00:42:18;99098.97;;;7.53;69.33
37856;BME280;23694;43.274;26.924;2023-04-10T00:44:44;99100.81;;;7.51;68.92
37856;BME280;23694;43.274;26.924;2023-04-10T00:47:11;99097.34;;;7.50;69.08
37856;BME280;23694;43.274;26.924;2023-04-10T00:49:38;99100.13;;;7.47;69.03
37856;BME280;23694;43.274;26.924;2023-04-10T00:52:04;99092.41;;;7.46;69.23
37856;BME280;23694;43.274;26.924;2023-04-10T00:54:31;99094.41;;;7.41;69.42
37856;BME280;23694;43.274;26.924;2023-04-10T00:56:57;99092.41;;;7.46;69.17
37856;BME280;23694;43.274;26.924;2023-04-10T00:59:23;99087.00;;;7.33;69.98
37856;BME280;23694;43.274;26.924;2023-04-10T01:01:50;99086.50;;;7.42;69.37
37856;BME280;23694;43.274;26.924;2023-04-10T01:04:16;99084.38;;;7.33;68.92
37856;BME280;23694;43.274;26.924;2023-04-10T01:17:34;99073.00;;;7.18;69.86
37856;BME280;23694;43.274;26.924;2023-04-10T01:20:12;99068.56;;;7.20;69.49
37856;BME280;23694;43.274;26.924;2023-04-10T01:25:47;99062.50;;;7.20;69.30
37856;BME280;23694;43.274;26.924;2023-04-10T01:30:46;99066.19;;;7.16;69.18
37856;BME280;23694;43.274;26.924;2023-04-10T01:33:17;99070.56;;;7.15;69.38
37856;BME280;23694;43.274;26.924;2023-04-10T01:35:48;99066.19;;;7.16;69.53
37856;BME280;23694;43.274;26.924;2023-04-10T01:38:17;99073.63;;;7.06;69.82
37856;BME280;23694;43.274;26.924;2023-04-10T01:40:44;99063.19;;;7.06;69.57
37856;BME280;23694;43.274;26.924;2023-04-10T01:43:15;99066.03;;;7.02;69.56
37856;BME280;23694;43.274;26.924;2023-04-10T01:45:43;99068.56;;;7.03;69.47
37856;BME280;23694;43.274;26.924;2023-04-10T01:48:11;99067.72;;;7.03;69.62
37856;BME280;23694;43.274;26.924;2023-04-10T01:50:38;99070.19;;;7.06;69.58
37856;BME280;23694;43.274;26.924;2023-04-10T01:53:05;99067.66;;;7.04;69.53
37856;BME280;23694;43.274;26.924;2023-04-10T01:55:32;99069.66;;;6.99;69.05
37856;BME280;23694;43.274;26.924;2023-04-10T01:57:59;99072.34;;;6.97;69.46
37856;BME280;23694;43.274;26.924;2023-04-10T02:00:26;99063.25;;;6.89;69.21
37856;BME280;23694;43.274;26.924;2023-04-10T02:02:52;99060.63;;;6.89;69.96
37856;BME280;23694;43.274;26.924;2023-04-10T02:05:19;99059.09;;;6.85;69.91
37856;BME280;23694;43.274;26.924;2023-04-10T02:07:56;99066.00;;;6.86;69.88
37856;BME280;23694;43.274;26.924;2023-04-10T02:11:00;99062.31;;;6.90;69.57
37856;BME280;23694;43.274;26.924;2023-04-10T02:13:29;99058.50;;;6.80;69.74
37856;BME280;23694;43.274;26.924;2023-04-10T02:15:58;99060.25;;;6.79;69.71
37856;BME280;23694;43.274;26.924;2023-04-10T02:18:25;99058.81;;;6.56;70.41
37856;BME280;23694;43.274;26.924;2023-04-10T02:20:53;99054.63;;;6.54;70.88
37856;BME280;23694;43.274;26.924;2023-04-10T02:23:20;99048.25;;;6.59;70.66
37856;BME280;23694;43.274;26.924;2023-04-10T02:25:47;99052.47;;;6.62;70.23
37856;BME280;23694;43.274;26.924;2023-04-10T02:28:13;99050.69;;;6.45;70.62
37856;BME280;23694;43.274;26.924;2023-04-10T02:30:39;99055.75;;;6.48;70.71
37856;BME280;23694;43.274;26.924;2023-04-10T02:33:05;99050.69;;;6.45;71.24
37856;BME280;23694;43.274;26.924;2023-04-10T02:35:32;99056.28;;;6.38;71.32
37856;BME280;23694;43.274;26.924;2023-04-10T02:37:58;99059.75;;;6.55;71.13
37856;BME280;23694;43.274;26.924;2023-04-10T02:40:25;99056.75;;;6.63;70.48
37856;BME280;23694;43.274;26.924;2023-04-10T02:42:51;99056.69;;;6.64;70.94
37856;BME280;23694;43.274;26.924;2023-04-10T02:45:17;99051.25;;;6.69;70.30
37856;BME280;23694;43.274;26.924;2023-04-10T02:47:43;99051.25;;;6.69;70.84
37856;BME280;23694;43.274;26.924;2023-04-10T02:50:09;99048.63;;;6.69;70.42
37856;BME280;23694;43.274;26.924;2023-04-10T02:52:36;99041.81;;;6.66;69.50
37856;BME280;23694;43.274;26.924;2023-04-10T02:55:02;99051.56;;;6.63;69.38
37856;BME280;23694;43.274;26.924;2023-04-10T02:57:28;99051.63;;;6.61;69.76
37856;BME280;23694;43.274;26.924;2023-04-10T02:59:54;99056.75;;;6.63;69.73
37856;BME280;23694;43.274;26.924;2023-04-10T03:02:20;99047.50;;;6.57;69.69
37856;BME280;23694;43.274;26.924;2023-04-10T03:04:46;99050.06;;;6.40;70.88
37856;BME280;23694;43.274;26.924;2023-04-10T03:07:12;99050.38;;;6.34;71.09
37856;BME280;23694;43.274;26.924;2023-04-10T03:09:38;99052.91;;;6.35;70.89
37856;BME280;23694;43.274;26.924;2023-04-10T03:12:05;99050.47;;;6.32;71.49
37856;BME280;23694;43.274;26.924;2023-04-10T03:14:31;99045.03;;;6.37;71.49
37856;BME280;23694;43.274;26.924;2023-04-10T03:16:57;99044.25;;;6.18;72.03
37856;BME280;23694;43.274;26.924;2023-04-10T03:19:23;99049.16;;;6.24;72.04
37856;BME280;23694;43.274;26.924;2023-04-10T03:21:51;99049.22;;;6.22;72.39
37856;BME280;23694;43.274;26.924;2023-04-10T03:24:18;99041.41;;;6.22;71.87
37856;BME280;23694;43.274;26.924;2023-04-10T03:26:44;99045.41;;;6.29;72.00
37856;BME280;23694;43.274;26.924;2023-04-10T03:29:10;99042.66;;;6.32;71.42
37856;BME280;23694;43.274;26.924;2023-04-10T03:31:36;99027.97;;;6.31;71.72
37856;BME280;23694;43.274;26.924;2023-04-10T03:34:02;99047.78;;;6.34;71.92
37856;BME280;23694;43.274;26.924;2023-04-10T03:36:28;99043.78;;;6.27;72.52
37856;BME280;23694;43.274;26.924;2023-04-10T03:38:54;99039.50;;;6.26;72.48
37856;BME280;23694;43.274;26.924;2023-04-10T03:41:20;99041.34;;;6.24;72.63
37856;BME280;23694;43.274;26.924;2023-04-10T03:43:49;99050.97;;;6.04;73.64
37856;BME280;23694;43.274;26.924;2023-04-10T03:46:15;99049.13;;;6.07;73.71
37856;BME280;23694;43.274;26.924;2023-04-10T03:48:41;99048.59;;;6.17;73.86
37856;BME280;23694;43.274;26.924;2023-04-10T03:51:07;99049.53;;;6.16;73.43
37856;BME280;23694;43.274;26.924;2023-04-10T03:53:33;99050.84;;;6.25;73.35
37856;BME280;23694;43.274;26.924;2023-04-10T03:56:04;99050.22;;;6.37;72.85
37856;BME280;23694;43.274;26.924;2023-04-10T03:58:30;99053.34;;;6.26;73.52
37856;BME280;23694;43.274;26.924;2023-04-10T04:00:56;99051.31;;;6.33;73.16
37856;BME280;23694;43.274;26.924;2023-04-10T04:03:22;99056.81;;;6.44;72.56
37856;BME280;23694;43.274;26.924;2023-04-10T04:05:48;99055.47;;;6.54;72.23
37856;BME280;23694;43.274;26.924;2023-04-10T04:08:14;99060.59;;;6.56;71.87
37856;BME280;23694;43.274;26.924;2023-04-10T04:10:40;99057.00;;;6.58;72.44
37856;BME280;23694;43.274;26.924;2023-04-10T04:13:06;99061.50;;;6.72;71.63
37856;BME280;23694;43.274;26.924;2023-04-10T04:15:32;99064.19;;;6.71;71.76
37856;BME280;23694;43.274;26.924;2023-04-10T04:17:58;99061.56;;;6.88;70.83
37856;BME280;23694;43.274;26.924;2023-04-10T04:20:25;99061.59;;;7.04;69.99
37856;BME280;23694;43.274;26.924;2023-04-10T04:22:51;99061.66;;;7.19;69.49
37856;BME280;23694;43.274;26.924;2023-04-10T04:25:17;99058.31;;;7.33;68.92
37856;BME280;23694;43.274;26.924;2023-04-10T04:27:44;99054.44;;;7.24;68.50
37856;BME280;23694;43.274;26.924;2023-04-10T04:30:10;99059.44;;;7.45;68.52
37856;BME280;23694;43.274;26.924;2023-04-10T04:32:37;99058.88;;;7.87;67.41
37856;BME280;23694;43.274;26.924;2023-04-10T04:35:03;99053.81;;;8.61;65.56
37856;BME280;23694;43.274;26.924;2023-04-10T04:37:29;99065.66;;;9.39;61.26
37856;BME280;23694;43.274;26.924;2023-04-10T04:39:55;99059.63;;;10.48;57.56
37856;BME280;23694;43.274;26.924;2023-04-10T04:42:21;99045.88;;;11.22;53.87
37856;BME280;23694;43.274;26.924;2023-04-10T04:44:48;99047.69;;;11.71;51.41
37856;BME280;23694;43.274;26.924;2023-04-10T04:47:14;99048.19;;;12.36;50.29
37856;BME280;23694;43.274;26.924;2023-04-10T04:49:41;99046.69;;;12.91;47.62
37856;BME280;23694;43.274;26.924;2023-04-10T04:52:07;99037.44;;;12.75;47.42
37856;BME280;23694;43.274;26.924;2023-04-10T04:54:34;99053.69;;;12.68;47.64
37856;BME280;23694;43.274;26.924;2023-04-10T04:57:00;99052.47;;;11.90;48.52
37856;BME280;23694;43.274;26.924;2023-04-10T04:59:26;99063.66;;;10.92;51.37
37856;BME280;23694;43.274;26.924;2023-04-10T05:01:52;99064.06;;;10.73;52.05
37856;BME280;23694;43.274;26.924;2023-04-10T05:04:18;99063.59;;;10.41;53.70
37856;BME280;23694;43.274;26.924;2023-04-10T05:06:45;99063.91;;;9.95;56.04
37856;BME280;23694;43.274;26.924;2023-04-10T05:09:11;99063.22;;;10.06;55.67
37856;BME280;23694;43.274;26.924;2023-04-10T05:11:37;99063.13;;;10.07;55.68
37856;BME280;23694;43.274;26.924;2023-04-10T05:14:04;99066.53;;;10.22;55.34
37856;BME280;23694;43.274;26.924;2023-04-10T05:16:30;99057.91;;;10.99;53.60
37856;BME280;23694;43.274;26.924;2023-04-10T05:18:57;99060.38;;;12.73;49.13
37856;BME280;23694;43.274;26.924;2023-04-10T05:21:23;99055.53;;;14.13;43.88
37856;BME280;23694;43.274;26.924;2023-04-10T05:23:49;99057.22;;;14.99;41.53
37856;BME280;23694;43.274;26.924;2023-04-10T05:26:15;99066.56;;;16.04;38.87
37856;BME280;23694;43.274;26.924;2023-04-10T05:28:41;99068.06;;;16.66;37.93
37856;BME280;23694;43.274;26.924;2023-04-10T05:31:07;99062.84;;;17.50;35.59
37856;BME280;23694;43.274;26.924;2023-04-10T05:33:33;99071.53;;;16.76;36.41
37856;BME280;23694;43.274;26.924;2023-04-10T05:35:59;99075.38;;;15.44;38.95
37856;BME280;23694;43.274;26.924;2023-04-10T05:38:25;99076.44;;;14.26;41.34
37856;BME280;23694;43.274;26.924;2023-04-10T05:40:51;99081.47;;;12.95;44.49
37856;BME280;23694;43.274;26.924;2023-04-10T05:43:17;99072.34;;;12.77;45.73
37856;BME280;23694;43.274;26.924;2023-04-10T05:45:43;99073.97;;;12.66;46.37
37856;BME280;23694;43.274;26.924;2023-04-10T05:48:10;99077.56;;;12.65;46.98
37856;BME280;23694;43.274;26.924;2023-04-10T05:50:36;99087.47;;;12.62;46.60
37856;BME280;23694;43.274;26.924;2023-04-10T05:53:02;99077.19;;;12.59;47.28
37856;BME280;23694;43.274;26.924;2023-04-10T05:55:30;99070.91;;;13.52;45.23
37856;BME280;23694;43.274;26.924;2023-04-10T05:57:56;99067.81;;;13.58;44.81
37856;BME280;23694;43.274;26.924;2023-04-10T06:00:22;99069.75;;;13.68;44.42
37856;BME280;23694;43.274;26.924;2023-04-10T06:02:49;99065.38;;;14.00;43.71
37856;BME280;23694;43.274;26.924;2023-04-10T06:05:15;99069.97;;;13.76;44.32
37856;BME280;23694;43.274;26.924;2023-04-10T06:07:41;99070.41;;;14.03;43.35
37856;BME280;23694;43.274;26.924;2023-04-10T06:10:09;99068.41;;;13.73;43.97
37856;BME280;23694;43.274;26.924;2023-04-10T06:12:35;99064.94;;;13.84;44.04
37856;BME280;23694;43.274;26.924;2023-04-10T06:15:01;99055.22;;;13.95;43.86
37856;BME280;23694;43.274;26.924;2023-04-10T06:17:27;99064.66;;;13.98;43.75
37856;BME280;23694;43.274;26.924;2023-04-10T06:19:53;99064.59;;;13.77;43.31
37856;BME280;23694;43.274;26.924;2023-04-10T06:22:21;99061.34;;;13.40;44.19
37856;BME280;23694;43.274;26.924;2023-04-10T06:24:47;99066.25;;;13.22;44.92
37856;BME280;23694;43.274;26.924;2023-04-10T06:27:13;99076.25;;;13.06;45.52
37856;BME280;23694;43.274;26.924;2023-04-10T06:29:39;99073.09;;;12.90;45.90
37856;BME280;23694;43.274;26.924;2023-04-10T06:32:05;99065.09;;;12.56;46.75
37856;BME280;23694;43.274;26.924;2023-04-10T06:34:31;99066.91;;;12.56;47.01
37856;BME280;23694;43.274;26.924;2023-04-10T06:36:57;99071.16;;;12.22;48.17
37856;BME280;23694;43.274;26.924;2023-04-10T06:39:23;99077.13;;;12.24;48.29
37856;BME280;23694;43.274;26.924;2023-04-10T06:41:50;99067.53;;;12.35;47.21
37856;BME280;23694;43.274;26.924;2023-04-10T06:44:16;99074.75;;;12.45;47.17
37856;BME280;23694;43.274;26.924;2023-04-10T06:46:42;99065.88;;;12.69;46.93
37856;BME280;23694;43.274;26.924;2023-04-10T06:49:08;99059.06;;;12.78;47.00
37856;BME280;23694;43.274;26.924;2023-04-10T06:51:34;99067.44;;;12.83;46.47
37856;BME280;23694;43.274;26.924;2023-04-10T06:54:00;99064.69;;;12.74;46.87
37856;BME280;23694;43.274;26.924;2023-04-10T06:56:26;99053.06;;;12.65;46.94
37856;BME280;23694;43.274;26.924;2023-04-10T06:58:52;99065.38;;;12.64;47.52
37856;BME280;23694;43.274;26.924;2023-04-10T07:01:18;99065.53;;;12.74;47.12
37856;BME280;23694;43.274;26.924;2023-04-10T07:03:44;99062.97;;;12.61;47.10
37856;BME280;23694;43.274;26.924;2023-04-10T07:06:11;99069.84;;;12.27;49.12
37856;BME280;23694;43.274;26.924;2023-04-10T07:08:37;99068.84;;;12.17;49.44
37856;BME280;23694;43.274;26.924;2023-04-10T07:11:03;99067.13;;;12.53;49.78
37856;BME280;23694;43.274;26.924;2023-04-10T07:13:29;99067.13;;;12.99;48.42
37856;BME280;23694;43.274;26.924;2023-04-10T07:15:55;99071.34;;;13.13;48.27
37856;BME280;23694;43.274;26.924;2023-04-10T07:18:21;99072.22;;;13.24;47.97
37856;BME280;23694;43.274;26.924;2023-04-10T07:20:47;99069.97;;;13.31;47.34
37856;BME280;23694;43.274;26.924;2023-04-10T07:23:14;99069.34;;;12.70;48.53
37856;BME280;23694;43.274;26.924;2023-04-10T07:25:41;99073.34;;;12.52;50.55
37856;BME280;23694;43.274;26.924;2023-04-10T07:28:07;99076.13;;;12.61;50.27
37856;BME280;23694;43.274;26.924;2023-04-10T07:30:33;99075.22;;;12.26;51.94
37856;BME280;23694;43.274;26.924;2023-04-10T07:32:59;99077.63;;;12.29;52.76
37856;BME280;23694;43.274;26.924;2023-04-10T07:35:25;99070.09;;;12.00;53.55
37856;BME280;23694;43.274;26.924;2023-04-10T07:37:51;99082.69;;;11.95;54.56
37856;BME280;23694;43.274;26.924;2023-04-10T07:40:19;99078.69;;;12.02;54.48
37856;BME280;23694;43.274;26.924;2023-04-10T07:42:45;99079.53;;;12.03;54.46
37856;BME280;23694;43.274;26.924;2023-04-10T07:45:12;99070.88;;;12.14;53.76
37856;BME280;23694;43.274;26.924;2023-04-10T07:47:38;99082.03;;;12.04;53.58
37856;BME280;23694;43.274;26.924;2023-04-10T07:50:05;99077.44;;;11.95;54.24
37856;BME280;23694;43.274;26.924;2023-04-10T07:52:31;99066.63;;;12.00;54.31
37856;BME280;23694;43.274;26.924;2023-04-10T07:55:01;99059.91;;;11.96;54.66
37856;BME280;23694;43.274;26.924;2023-04-10T07:57:27;99064.31;;;11.95;54.65
37856;BME280;23694;43.274;26.924;2023-04-10T07:59:53;99064.78;;;11.89;55.80
37856;BME280;23694;43.274;26.924;2023-04-10T08:02:19;99059.75;;;12.10;54.51
37856;BME280;23694;43.274;26.924;2023-04-10T08:04:47;99062.47;;;12.32;54.58
37856;BME280;23694;43.274;26.924;2023-04-10T08:07:13;99066.72;;;12.22;54.50
37856;BME280;23694;43.274;26.924;2023-04-10T08:09:39;99061.91;;;11.92;54.67
37856;BME280;23694;43.274;26.924;2023-04-10T08:12:05;99068.53;;;11.98;54.41
37856;BME280;23694;43.274;26.924;2023-04-10T08:14:31;99063.28;;;11.98;54.45
37856;BME280;23694;43.274;26.924;2023-04-10T08:16:57;99062.69;;;11.82;54.81
37856;BME280;23694;43.274;26.924;2023-04-10T08:19:23;99059.75;;;11.73;55.65
37856;BME280;23694;43.274;26.924;2023-04-10T08:21:50;99052.19;;;11.82;54.72
37856;BME280;23694;43.274;26.924;2023-04-10T08:24:16;99054.28;;;11.77;55.39
37856;BME280;23694;43.274;26.924;2023-04-10T08:26:44;99053.75;;;11.84;54.15
37856;BME280;23694;43.274;26.924;2023-04-10T08:29:10;99046.19;;;11.67;54.68
37856;BME280;23694;43.274;26.924;2023-04-10T08:31:36;99053.88;;;11.83;54.24
37856;BME280;23694;43.274;26.924;2023-04-10T08:34:02;99050.81;;;11.89;53.66
37856;BME280;23694;43.274;26.924;2023-04-10T08:36:29;99040.47;;;11.98;52.59
37856;BME280;23694;43.274;26.924;2023-04-10T08:38:56;99046.41;;;11.89;52.09
37856;BME280;23694;43.274;26.924;2023-04-10T08:41:22;99049.03;;;11.89;52.06
37856;BME280;23694;43.274;26.924;2023-04-10T08:43:48;99044.13;;;11.72;53.03
37856;BME280;23694;43.274;26.924;2023-04-10T08:46:15;99036.97;;;11.74;52.22
37856;BME280;23694;43.274;26.924;2023-04-10T08:51:14;99037.72;;;11.63;52.37
37856;BME280;23694;43.274;26.924;2023-04-10T08:53:43;99039.63;;;11.49;53.18
37856;BME280;23694;43.274;26.924;2023-04-10T08:56:12;99029.88;;;11.51;52.76
37856;BME280;23694;43.274;26.924;2023-04-10T08:58:41;99021.34;;;11.60;53.57
37856;BME280;23694;43.274;26.924;2023-04-10T09:01:08;99029.84;;;11.63;53.06
37856;BME280;23694;43.274;26.924;2023-04-10T09:03:35;99019.66;;;11.59;53.07
37856;BME280;23694;43.274;26.924;2023-04-10T09:06:02;99028.16;;;11.62;52.93
37856;BME280;23694;43.274;26.924;2023-04-10T09:08:29;99023.22;;;11.70;53.10
37856;BME280;23694;43.274;26.924;2023-04-10T09:10:56;99021.53;;;11.69;53.41
37856;BME280;23694;43.274;26.924;2023-04-10T09:13:42;99018.06;;;11.69;53.44
37856;BME280;23694;43.274;26.924;2023-04-10T09:16:09;99006.97;;;11.78;53.37
37856;BME280;23694;43.274;26.924;2023-04-10T09:18:43;99012.09;;;11.67;53.78
37856;BME280;23694;43.274;26.924;2023-04-10T09:21:11;99012.53;;;11.61;53.97
37856;BME280;23694;43.274;26.924;2023-04-10T09:23:37;99006.16;;;11.52;54.34
37856;BME280;23694;43.274;26.924;2023-04-10T09:28:55;98999.59;;;11.83;53.93
37856;BME280;23694;43.274;26.924;2023-04-10T09:31:30;98991.91;;;11.93;54.04
37856;BME280;23694;43.274;26.924;2023-04-10T09:34:16;98997.25;;;11.91;53.61
37856;BME280;23694;43.274;26.924;2023-04-10T09:36:52;98988.38;;;11.81;54.30
37856;BME280;23694;43.274;26.924;2023-04-10T09:39:18;98984.06;;;11.67;55.12
37856;BME280;23694;43.274;26.924;2023-04-10T09:41:52;98985.56;;;11.59;55.83
37856;BME280;23694;43.274;26.924;2023-04-10T09:44:31;98991.94;;;11.67;56.02
37856;BME280;23694;43.274;26.924;2023-04-10T09:46:58;98985.97;;;11.65;56.23
37856;BME280;23694;43.274;26.924;2023-04-10T09:50:06;98985.44;;;11.73;57.08
37856;BME280;23694;43.274;26.924;2023-04-10T09:52:35;98995.03;;;11.98;56.56
37856;BME280;23694;43.274;26.924;2023-04-10T09:55:04;98975.38;;;11.80;56.66
37856;BME280;23694;43.274;26.924;2023-04-10T09:57:32;98982.78;;;11.86;57.34
37856;BME280;23694;43.274;26.924;2023-04-10T10:00:02;98986.56;;;11.69;57.53
37856;BME280;23694;43.274;26.924;2023-04-10T10:02:33;98978.19;;;11.64;57.93
37856;BME280;23694;43.274;26.924;2023-04-10T10:05:03;98973.69;;;11.79;57.91
37856;BME280;23694;43.274;26.924;2023-04-10T10:07:30;98973.03;;;11.75;58.42
37856;BME280;23694;43.274;26.924;2023-04-10T10:09:57;98966.66;;;11.66;58.29
37856;BME280;23694;43.274;26.924;2023-04-10T10:12:30;98962.66;;;11.73;58.50
37856;BME280;23694;43.274;26.924;2023-04-10T10:15:34;98950.50;;;11.96;58.38
37856;BME280;23694;43.274;26.924;2023-04-10T10:20:37;98955.56;;;12.11;58.16
37856;BME280;23694;43.274;26.924;2023-04-10T10:23:06;98950.84;;;12.27;57.54
37856;BME280;23694;43.274;26.924;2023-04-10T10:25:36;98940.28;;;12.40;56.31
37856;BME280;23694;43.274;26.924;2023-04-10T10:28:04;98945.19;;;12.44;56.78
37856;BME280;23694;43.274;26.924;2023-04-10T10:30:33;98935.50;;;12.45;56.35
37856;BME280;23694;43.274;26.924;2023-04-10T10:33:01;98940.00;;;12.31;55.86
37856;BME280;23694;43.274;26.924;2023-04-10T10:35:31;98935.91;;;12.16;56.63
37856;BME280;23694;43.274;26.924;2023-04-10T10:37:58;98933.63;;;12.12;57.22
37856;BME280;23694;43.274;26.924;2023-04-10T10:40:31;98929.69;;;12.17;57.55
37856;BME280;23694;43.274;26.924;2023-04-10T10:43:19;98929.44;;;12.09;56.71
37856;BME280;23694;43.274;26.924;2023-04-10T10:46:01;98915.88;;;12.26;55.75
37856;BME280;23694;43.274;26.924;2023-04-10T10:48:30;98921.97;;;12.27;56.41
37856;BME280;23694;43.274;26.924;2023-04-10T10:50:58;98916.06;;;12.12;56.67
37856;BME280;23694;43.274;26.924;2023-04-10T10:53:43;98909.41;;;12.19;56.52
37856;BME280;23694;43.274;26.924;2023-04-10T10:56:33;98903.56;;;12.16;56.29
37856;BME280;23694;43.274;26.924;2023-04-10T10:58:59;98898.31;;;12.27;56.55
37856;BME280;23694;43.274;26.924;2023-04-10T11:01:26;98897.53;;;12.37;55.98
37856;BME280;23694;43.274;26.924;2023-04-10T11:03:53;98894.28;;;12.34;55.88
37856;BME280;23694;43.274;26.924;2023-04-10T11:06:21;98893.56;;;12.32;55.49
37856;BME280;23694;43.274;26.924;2023-04-10T11:08:51;98893.84;;;12.40;55.67
37856;BME280;23694;43.274;26.924;2023-04-10T11:11:21;98886.31;;;12.47;54.99
37856;BME280;23694;43.274;26.924;2023-04-10T11:19:08;98886.31;;;12.47;55.28
37856;BME280;23694;43.274;26.924;2023-04-10T11:22:00;98881.53;;;12.41;55.23
37856;BME280;23694;43.274;26.924;2023-04-10T11:24:28;98879.03;;;12.39;55.36
37856;BME280;23694;43.274;26.924;2023-04-10T11:26:54;98869.97;;;12.43;55.31
37856;BME280;23694;43.274;26.924;2023-04-10T11:31:54;98862.88;;;12.32;56.03
37856;BME280;23694;43.274;26.924;2023-04-10T11:34:20;98868.00;;;12.23;56.81
37856;BME280;23694;43.274;26.924;2023-04-10T11:36:46;98862.25;;;12.18;56.63
37856;BME280;23694;43.274;26.924;2023-04-10T11:39:14;98867.75;;;12.15;57.79
37856;BME280;23694;43.274;26.924;2023-04-10T11:41:51;98866.06;;;12.14;58.30
37856;BME280;23694;43.274;26.924;2023-04-10T11:44:30;98866.19;;;12.12;58.06
37856;BME280;23694;43.274;26.924;2023-04-10T11:46:57;98874.53;;;12.06;59.99
37856;BME280;23694;43.274;26.924;2023-04-10T11:49:25;98872.25;;;12.01;60.17
37856;BME280;23694;43.274;26.924;2023-04-10T11:51:52;98863.41;;;11.91;60.93
37856;BME280;23694;43.274;26.924;2023-04-10T11:56:59;98850.53;;;11.99;62.22
37856;BME280;23694;43.274;26.924;2023-04-10T11:59:26;98847.22;;;12.09;63.03
37856;BME280;23694;43.274;26.924;2023-04-10T12:02:04;98849.69;;;11.99;61.90
37856;BME280;23694;43.274;26.924;2023-04-10T12:04:31;98838.97;;;12.02;62.49
37856;BME280;23694;43.274;26.924;2023-04-10T12:06:58;98833.47;;;12.05;62.62
37856;BME280;23694;43.274;26.924;2023-04-10T12:09:24;98838.38;;;12.10;62.89
37856;BME280;23694;43.274;26.924;2023-04-10T12:11:56;98824.88;;;12.03;62.37
37856;BME280;23694;43.274;26.924;2023-04-10T12:16:57;98822.25;;;12.03;62.66
37856;BME280;23694;43.274;26.924;2023-04-10T12:19:25;98824.88;;;12.03;62.17
37856;BME280;23694;43.274;26.924;2023-04-10T12:21:51;98817.72;;;11.94;62.90
37856;BME280;23694;43.274;26.924;2023-04-10T12:24:40;98825.09;;;11.89;62.76
37856;BME280;23694;43.274;26.924;2023-04-10T12:27:23;98820.69;;;12.00;62.19
37856;BME280;23694;43.274;26.924;2023-04-10T12:29:52;98813.31;;;12.05;62.05
37856;BME280;23694;43.274;26.924;2023-04-10T12:32:19;98815.34;;;12.02;61.86
37856;BME280;23694;43.274;26.924;2023-04-10T12:34:53;98815.69;;;11.97;62.29
37856;BME280;23694;43.274;26.924;2023-04-10T12:37:22;98816.28;;;11.90;63.15
37856;BME280;23694;43.274;26.924;2023-04-10T12:39:48;98824.16;;;11.90;64.84
37856;BME280;23694;43.274;26.924;2023-04-10T12:42:21;98818.88;;;11.66;68.77
37856;BME280;23694;43.274;26.924;2023-04-10T12:44:55;98826.03;;;11.29;68.67
37856;BME280;23694;43.274;26.924;2023-04-10T12:47:23;98814.66;;;11.17;71.12
37856;BME280;23694;43.274;26.924;2023-04-10T12:50:09;98818.13;;;11.05;73.15
37856;BME280;23694;43.274;26.924;2023-04-10T12:52:39;98815.94;;;10.99;72.73
37856;BME280;23694;43.274;26.924;2023-04-10T12:57:40;98808.41;;;11.07;73.41
37856;BME280;23694;43.274;26.924;2023-04-10T13:00:08;98805.13;;;11.16;73.50
37856;BME280;23694;43.274;26.924;2023-04-10T13:02:38;98812.03;;;11.17;72.91
37856;BME280;23694;43.274;26.924;2023-04-10T13:05:05;98810.41;;;11.27;73.34
37856;BME280;23694;43.274;26.924;2023-04-10T13:07:32;98803.16;;;11.31;75.73
37856;BME280;23694;43.274;26.924;2023-04-10T13:09:58;98795.78;;;11.36;77.25
37856;BME280;23694;43.274;26.924;2023-04-10T13:12:25;98798.22;;;11.50;78.31
37856;BME280;23694;43.274;26.924;2023-04-10T13:14:53;98796.22;;;11.65;79.52
37856;BME280;23694;43.274;26.924;2023-04-10T13:17:20;98791.78;;;11.78;80.26
37856;BME280;23694;43.274;26.924;2023-04-10T13:19:46;98788.84;;;11.94;80.56
37856;BME280;23694;43.274;26.924;2023-04-10T13:22:13;98786.09;;;12.06;80.77
37856;BME280;23694;43.274;26.924;2023-04-10T13:24:40;98792.69;;;12.12;82.08
37856;BME280;23694;43.274;26.924;2023-04-10T13:27:06;98792.44;;;12.26;83.07
37856;BME280;23694;43.274;26.924;2023-04-10T13:29:35;98793.50;;;12.24;83.22
37856;BME280;23694;43.274;26.924;2023-04-10T13:32:01;98796.50;;;12.19;82.32
37856;BME280;23694;43.274;26.924;2023-04-10T13:34:30;98794.94;;;12.28;81.64
37856;BME280;23694;43.274;26.924;2023-04-10T13:36:57;98801.88;;;12.18;78.09